sensor_id;sensor_type;location;lat;lon;timestamp;temperature;humidity
15765;DHT22;7983;50.744;7.086;2023-02-03T00:01:47;11.10;99.90
15765;DHT22;7983;50.744;7.086;2023-02-03T00:04:13;11.10;99.90
15765;DHT22;7983;50.744;7.086;2023-02-03T00:06:39;11.10;99.90
15765;DHT22;7983;50.744;7.086;2023-02-03T00:09:09;11.10;99.90
15765;DHT22;7983;50.744;7.086;2023-02-03T00:11:37;11.10;99.90
15765;DHT22;7983;50.744;7.086;2023-02-03T00:14:05;11.20;99.90
15765;DHT22;7983;50.744;7.086;2023-02-03T00:16:32;11.20;99.90
15765;DHT22;7983;50.744;7.086;2023-02-03T00:18:58;11.10;99.90
15765;DHT22;7983;50.744;7.086;2023-02-03T00:21:24;11.10;99.90
15765;DHT22;7983;50.744;7.086;2023-02-03T00:23:49;11.20;99.90
15765;DHT22;7983;50.744;7.086;2023-02-03T00:26:16;11.10;99.90
15765;DHT22;7983;50.744;7.086;2023-02-03T00:28:43;11.10;99.90
15765;DHT22;7983;50.744;7.086;2023-02-03T00:31:16;11.10;99.90
15765;DHT22;7983;50.744;7.086;2023-02-03T00:33:42;11.10;99.90
15765;DHT22;7983;50.744;7.086;2023-02-03T00:36:08;11.20;99.90
15765;DHT22;7983;50.744;7.086;2023-02-03T00:38:34;11.10;99.90
15765;DHT22;7983;50.744;7.086;2023-02-03T00:41:00;11.20;99.90
15765;DHT22;7983;50.744;7.086;2023-02-03T00:43:25;11.20;99.90
15765;DHT22;7983;50.744;7.086;2023-02-03T00:45:51;11.20;99.90
15765;DHT22;7983;50.744;7.086;2023-02-03T00:48:21;11.20;99.90
15765;DHT22;7983;50.744;7.086;2023-02-03T00:50:49;11.30;99.90
15765;DHT22;7983;50.744;7.086;2023-02-03T00:53:15;11.30;99.90
15765;DHT22;7983;50.744;7.086;2023-02-03T00:55:46;11.20;99.90
15765;DHT22;7983;50.744;7.086;2023-02-03T00:58:11;11.20;99.90
15765;DHT22;7983;50.744;7.086;2023-02-03T01:00:37;11.20;99.90
15765;DHT22;7983;50.744;7.086;2023-02-03T01:03:03;11.20;99.90
15765;DHT22;7983;50.744;7.086;2023-02-03T01:05:29;11.30;99.90
15765;DHT22;7983;50.744;7.086;2023-02-03T01:07:55;11.30;99.90
15765;DHT22;7983;50.744;7.086;2023-02-03T01:10:23;11.30;99.90
15765;DHT22;7983;50.744;7.086;2023-02-03T01:12:48;11.30;99.90
15765;DHT22;7983;50.744;7.086;2023-02-03T01:15:16;11.30;99.90
15765;DHT22;7983;50.744;7.086;2023-02-03T01:17:42;11.30;99.90
15765;DHT22;7983;50.744;7.086;2023-02-03T01:20:08;11.30;99.90
15765;DHT22;7983;50.744;7.086;2023-02-03T01:22:41;11.30;99.90
15765;DHT22;7983;50.744;7.086;2023-02-03T01:25:11;11.30;99.90
15765;DHT22;7983;50.744;7.086;2023-02-03T01:27:37;11.40;99.90
15765;DHT22;7983;50.744;7.086;2023-02-03T01:30:03;11.30;99.90
15765;DHT22;7983;50.744;7.086;2023-02-03T01:32:31;11.30;99.90
15765;DHT22;7983;50.744;7.086;2023-02-03T01:34:59;11.30;99.90
15765;DHT22;7983;50.744;7.086;2023-02-03T01:37:29;11.30;99.90
15765;DHT22;7983;50.744;7.086;2023-02-03T01:39:57;11.40;99.90
15765;DHT22;7983;50.744;7.086;2023-02-03T01:42:30;11.30;99.90
15765;DHT22;7983;50.744;7.086;2023-02-03T01:44:57;11.30;99.90
15765;DHT22;7983;50.744;7.086;2023-02-03T01:47:32;11.30;99.90
15765;DHT22;7983;50.744;7.086;2023-02-03T01:50:01;11.30;99.90
15765;DHT22;7983;50.744;7.086;2023-02-03T01:52:31;11.30;99.90
15765;DHT22;7983;50.744;7.086;2023-02-03T01:54:59;11.30;99.90
15765;DHT22;7983;50.744;7.086;2023-02-03T01:57:30;11.30;99.90
15765;DHT22;7983;50.744;7.086;2023-02-03T01:59:58;11.30;99.90
15765;DHT22;7983;50.744;7.086;2023-02-03T02:02:27;11.30;99.90
15765;DHT22;7983;50.744;7.086;2023-02-03T02:05:04;11.30;99.90
15765;DHT22;7983;50.744;7.086;2023-02-03T02:07:33;11.40;99.90
15765;DHT22;7983;50.744;7.086;2023-02-03T02:10:03;11.40;99.90
15765;DHT22;7983;50.744;7.086;2023-02-03T02:12:29;11.40;99.90
15765;DHT22;7983;50.744;7.086;2023-02-03T02:14:58;11.40;99.90
15765;DHT22;7983;50.744;7.086;2023-02-03T02:20:37;11.40;99.90
15765;DHT22;7983;50.744;7.086;2023-02-03T02:23:40;11.40;99.90
15765;DHT22;7983;50.744;7.086;2023-02-03T02:34:44;11.40;99.90
15765;DHT22;7983;50.744;7.086;2023-02-03T02:37:27;11.40;99.90
15765;DHT22;7983;50.744;7.086;2023-02-03T02:45:13;11.40;99.90
15765;DHT22;7983;50.744;7.086;2023-02-03T02:47:39;11.40;99.90
15765;DHT22;7983;50.744;7.086;2023-02-03T02:50:20;11.40;99.90
15765;DHT22;7983;50.744;7.086;2023-02-03T02:52:50;11.40;99.90
15765;DHT22;7983;50.744;7.086;2023-02-03T02:55:30;11.40;99.90
15765;DHT22;7983;50.744;7.086;2023-02-03T02:58:01;11.40;99.90
15765;DHT22;7983;50.744;7.086;2023-02-03T03:00:33;11.40;99.90
15765;DHT22;7983;50.744;7.086;2023-02-03T03:03:21;11.40;99.90
15765;DHT22;7983;50.744;7.086;2023-02-03T03:05:55;11.40;99.90
15765;DHT22;7983;50.744;7.086;2023-02-03T03:08:35;11.40;99.90
15765;DHT22;7983;50.744;7.086;2023-02-03T03:11:02;11.40;99.90
15765;DHT22;7983;50.744;7.086;2023-02-03T03:13:32;11.40;99.90
15765;DHT22;7983;50.744;7.086;2023-02-03T03:16:02;11.30;99.90
15765;DHT22;7983;50.744;7.086;2023-02-03T03:18:34;11.40;99.90
15765;DHT22;7983;50.744;7.086;2023-02-03T03:21:06;11.40;99.90
15765;DHT22;7983;50.744;7.086;2023-02-03T03:23:39;11.40;99.90
15765;DHT22;7983;50.744;7.086;2023-02-03T03:26:27;11.40;99.90
15765;DHT22;7983;50.744;7.086;2023-02-03T03:31:32;11.40;99.90
15765;DHT22;7983;50.744;7.086;2023-02-03T03:34:03;11.40;99.90
15765;DHT22;7983;50.744;7.086;2023-02-03T03:41:59;11.30;99.90
15765;DHT22;7983;50.744;7.086;2023-02-03T03:44:32;11.30;99.90
15765;DHT22;7983;50.744;7.086;2023-02-03T03:47:13;11.30;99.90
15765;DHT22;7983;50.744;7.086;2023-02-03T03:49:42;11.30;99.90
15765;DHT22;7983;50.744;7.086;2023-02-03T03:52:13;11.20;99.90
15765;DHT22;7983;50.744;7.086;2023-02-03T03:54:41;11.30;99.90
15765;DHT22;7983;50.744;7.086;2023-02-03T03:57:25;11.30;99.90
15765;DHT22;7983;50.744;7.086;2023-02-03T03:59:52;11.30;99.90
15765;DHT22;7983;50.744;7.086;2023-02-03T04:02:20;11.30;99.90
15765;DHT22;7983;50.744;7.086;2023-02-03T04:04:49;11.30;99.90
15765;DHT22;7983;50.744;7.086;2023-02-03T04:07:15;11.30;99.90
15765;DHT22;7983;50.744;7.086;2023-02-03T04:09:41;11.30;99.90
15765;DHT22;7983;50.744;7.086;2023-02-03T04:12:23;11.30;99.90
15765;DHT22;7983;50.744;7.086;2023-02-03T04:14:49;11.30;99.90
15765;DHT22;7983;50.744;7.086;2023-02-03T04:17:14;11.30;99.90
15765;DHT22;7983;50.744;7.086;2023-02-03T04:19:40;11.30;99.90
15765;DHT22;7983;50.744;7.086;2023-02-03T04:22:05;11.30;99.90
15765;DHT22;7983;50.744;7.086;2023-02-03T04:24:31;11.40;99.90
15765;DHT22;7983;50.744;7.086;2023-02-03T04:26:57;11.30;99.90
15765;DHT22;7983;50.744;7.086;2023-02-03T04:29:25;11.30;99.90
15765;DHT22;7983;50.744;7.086;2023-02-03T04:31:53;11.40;99.90
15765;DHT22;7983;50.744;7.086;2023-02-03T04:34:18;11.40;99.90
15765;DHT22;7983;50.744;7.086;2023-02-03T04:36:44;11.40;99.90
15765;DHT22;7983;50.744;7.086;2023-02-03T04:39:09;11.30;99.90
15765;DHT22;7983;50.744;7.086;2023-02-03T04:41:35;11.40;99.90
15765;DHT22;7983;50.744;7.086;2023-02-03T04:44:05;11.40;99.90
15765;DHT22;7983;50.744;7.086;2023-02-03T04:46:33;11.40;99.90
15765;DHT22;7983;50.744;7.086;2023-02-03T04:49:02;11.30;99.90
15765;DHT22;7983;50.744;7.086;2023-02-03T04:51:30;11.40;99.90
15765;DHT22;7983;50.744;7.086;2023-02-03T04:53:55;11.40;99.90
15765;DHT22;7983;50.744;7.086;2023-02-03T04:56:25;11.40;99.90
15765;DHT22;7983;50.744;7.086;2023-02-03T04:58:55;11.40;99.90
15765;DHT22;7983;50.744;7.086;2023-02-03T05:01:23;11.40;99.90
15765;DHT22;7983;50.744;7.086;2023-02-03T05:03:49;11.40;99.90
15765;DHT22;7983;50.744;7.086;2023-02-03T05:06:14;11.40;99.90
15765;DHT22;7983;50.744;7.086;2023-02-03T05:08:43;11.40;99.90
15765;DHT22;7983;50.744;7.086;2023-02-03T05:11:10;11.40;99.90
15765;DHT22;7983;50.744;7.086;2023-02-03T05:13:36;11.40;99.90
15765;DHT22;7983;50.744;7.086;2023-02-03T05:16:04;11.30;99.90
15765;DHT22;7983;50.744;7.086;2023-02-03T05:18:30;11.40;99.90
15765;DHT22;7983;50.744;7.086;2023-02-03T05:20:58;11.40;99.90
15765;DHT22;7983;50.744;7.086;2023-02-03T05:23:26;11.40;99.90
15765;DHT22;7983;50.744;7.086;2023-02-03T05:25:51;11.30;99.90
15765;DHT22;7983;50.744;7.086;2023-02-03T05:28:17;11.30;99.90
15765;DHT22;7983;50.744;7.086;2023-02-03T05:30:45;11.40;99.90
15765;DHT22;7983;50.744;7.086;2023-02-03T05:33:13;11.40;99.90
15765;DHT22;7983;50.744;7.086;2023-02-03T05:35:41;11.40;99.90
15765;DHT22;7983;50.744;7.086;2023-02-03T05:38:07;11.40;99.90
15765;DHT22;7983;50.744;7.086;2023-02-03T05:40:35;11.40;99.90
15765;DHT22;7983;50.744;7.086;2023-02-03T05:43:22;11.40;99.90
15765;DHT22;7983;50.744;7.086;2023-02-03T05:45:47;11.30;99.90
15765;DHT22;7983;50.744;7.086;2023-02-03T05:48:13;11.40;99.90
15765;DHT22;7983;50.744;7.086;2023-02-03T05:50:41;11.30;99.90
15765;DHT22;7983;50.744;7.086;2023-02-03T05:53:11;11.40;99.90
15765;DHT22;7983;50.744;7.086;2023-02-03T05:55:39;11.40;99.90
15765;DHT22;7983;50.744;7.086;2023-02-03T05:58:05;11.30;99.90
15765;DHT22;7983;50.744;7.086;2023-02-03T06:00:31;11.30;99.90
15765;DHT22;7983;50.744;7.086;2023-02-03T06:02:59;11.40;99.90
15765;DHT22;7983;50.744;7.086;2023-02-03T06:05:28;11.30;99.90
15765;DHT22;7983;50.744;7.086;2023-02-03T06:07:54;11.30;99.90
15765;DHT22;7983;50.744;7.086;2023-02-03T06:10:21;11.30;99.90
15765;DHT22;7983;50.744;7.086;2023-02-03T06:12:47;11.30;99.90
15765;DHT22;7983;50.744;7.086;2023-02-03T06:15:13;11.30;99.90
15765;DHT22;7983;50.744;7.086;2023-02-03T06:17:39;11.30;99.90
15765;DHT22;7983;50.744;7.086;2023-02-03T06:20:08;11.30;99.90
15765;DHT22;7983;50.744;7.086;2023-02-03T06:22:38;11.30;99.90
15765;DHT22;7983;50.744;7.086;2023-02-03T06:25:06;11.30;99.90
15765;DHT22;7983;50.744;7.086;2023-02-03T06:27:32;11.40;99.90
15765;DHT22;7983;50.744;7.086;2023-02-03T06:29:58;11.40;99.90
15765;DHT22;7983;50.744;7.086;2023-02-03T06:32:29;11.40;99.90
15765;DHT22;7983;50.744;7.086;2023-02-03T06:34:54;11.40;99.90
15765;DHT22;7983;50.744;7.086;2023-02-03T06:37:20;11.40;99.90
15765;DHT22;7983;50.744;7.086;2023-02-03T06:39:46;11.40;99.90
15765;DHT22;7983;50.744;7.086;2023-02-03T06:42:11;11.40;99.90
15765;DHT22;7983;50.744;7.086;2023-02-03T06:44:37;11.40;99.90
15765;DHT22;7983;50.744;7.086;2023-02-03T06:47:05;11.40;99.90
15765;DHT22;7983;50.744;7.086;2023-02-03T06:49:32;11.40;99.90
15765;DHT22;7983;50.744;7.086;2023-02-03T06:51:58;11.40;99.90
15765;DHT22;7983;50.744;7.086;2023-02-03T06:54:24;11.40;99.90
15765;DHT22;7983;50.744;7.086;2023-02-03T06:56:49;11.40;99.90
15765;DHT22;7983;50.744;7.086;2023-02-03T06:59:18;11.40;99.90
15765;DHT22;7983;50.744;7.086;2023-02-03T07:01:43;11.40;99.90
15765;DHT22;7983;50.744;7.086;2023-02-03T07:04:10;11.40;99.90
15765;DHT22;7983;50.744;7.086;2023-02-03T07:06:36;11.50;99.90
15765;DHT22;7983;50.744;7.086;2023-02-03T07:09:07;11.50;99.90
15765;DHT22;7983;50.744;7.086;2023-02-03T07:11:35;11.50;99.90
15765;DHT22;7983;50.744;7.086;2023-02-03T07:14:00;11.50;99.90
15765;DHT22;7983;50.744;7.086;2023-02-03T07:16:29;11.50;99.90
15765;DHT22;7983;50.744;7.086;2023-02-03T07:18:55;11.50;99.90
15765;DHT22;7983;50.744;7.086;2023-02-03T07:21:21;11.50;99.90
15765;DHT22;7983;50.744;7.086;2023-02-03T07:23:49;11.50;99.90
15765;DHT22;7983;50.744;7.086;2023-02-03T07:26:18;11.50;99.90
15765;DHT22;7983;50.744;7.086;2023-02-03T07:28:43;11.50;99.90
15765;DHT22;7983;50.744;7.086;2023-02-03T07:31:09;11.50;99.90
15765;DHT22;7983;50.744;7.086;2023-02-03T07:33:36;11.50;99.90
15765;DHT22;7983;50.744;7.086;2023-02-03T07:36:02;11.60;99.90
15765;DHT22;7983;50.744;7.086;2023-02-03T07:38:30;11.50;99.90
15765;DHT22;7983;50.744;7.086;2023-02-03T07:40:56;11.50;99.90
15765;DHT22;7983;50.744;7.086;2023-02-03T07:43:22;11.50;99.90
15765;DHT22;7983;50.744;7.086;2023-02-03T07:45:48;11.50;99.90
15765;DHT22;7983;50.744;7.086;2023-02-03T07:48:16;11.50;99.90
15765;DHT22;7983;50.744;7.086;2023-02-03T07:50:42;11.60;99.90
15765;DHT22;7983;50.744;7.086;2023-02-03T07:53:07;11.60;99.90
15765;DHT22;7983;50.744;7.086;2023-02-03T07:55:37;11.60;99.90
15765;DHT22;7983;50.744;7.086;2023-02-03T07:58:03;11.60;99.90
15765;DHT22;7983;50.744;7.086;2023-02-03T08:00:29;11.60;99.90
15765;DHT22;7983;50.744;7.086;2023-02-03T08:02:55;11.60;99.90
15765;DHT22;7983;50.744;7.086;2023-02-03T08:05:23;11.60;99.90
15765;DHT22;7983;50.744;7.086;2023-02-03T08:07:48;11.70;99.90
15765;DHT22;7983;50.744;7.086;2023-02-03T08:10:16;11.60;99.90
15765;DHT22;7983;50.744;7.086;2023-02-03T08:12:45;11.60;99.90
15765;DHT22;7983;50.744;7.086;2023-02-03T08:15:12;11.70;99.90
15765;DHT22;7983;50.744;7.086;2023-02-03T08:17:38;11.70;99.90
15765;DHT22;7983;50.744;7.086;2023-02-03T08:20:08;11.70;99.90
15765;DHT22;7983;50.744;7.086;2023-02-03T08:22:36;11.70;99.90
15765;DHT22;7983;50.744;7.086;2023-02-03T08:25:02;11.70;99.90
15765;DHT22;7983;50.744;7.086;2023-02-03T08:27:28;11.70;99.90
15765;DHT22;7983;50.744;7.086;2023-02-03T08:29:55;11.70;99.90
15765;DHT22;7983;50.744;7.086;2023-02-03T08:32:23;11.70;99.90
15765;DHT22;7983;50.744;7.086;2023-02-03T08:34:49;11.70;99.90
15765;DHT22;7983;50.744;7.086;2023-02-03T08:37:20;11.80;99.90
15765;DHT22;7983;50.744;7.086;2023-02-03T08:39:47;11.80;99.90
15765;DHT22;7983;50.744;7.086;2023-02-03T08:42:15;11.80;99.90
15765;DHT22;7983;50.744;7.086;2023-02-03T08:44:41;11.80;99.90
15765;DHT22;7983;50.744;7.086;2023-02-03T08:47:09;11.80;99.90
15765;DHT22;7983;50.744;7.086;2023-02-03T08:49:35;11.80;99.90
15765;DHT22;7983;50.744;7.086;2023-02-03T08:52:04;11.80;99.90
15765;DHT22;7983;50.744;7.086;2023-02-03T08:54:30;11.80;99.90
15765;DHT22;7983;50.744;7.086;2023-02-03T08:56:56;11.90;99.90
15765;DHT22;7983;50.744;7.086;2023-02-03T08:59:24;11.80;99.90
15765;DHT22;7983;50.744;7.086;2023-02-03T09:01:53;11.80;99.90
15765;DHT22;7983;50.744;7.086;2023-02-03T09:04:19;11.90;99.90
15765;DHT22;7983;50.744;7.086;2023-02-03T09:06:52;11.80;99.90
15765;DHT22;7983;50.744;7.086;2023-02-03T09:09:21;11.90;99.90
15765;DHT22;7983;50.744;7.086;2023-02-03T09:11:47;11.90;99.90
15765;DHT22;7983;50.744;7.086;2023-02-03T09:14:13;11.90;99.90
15765;DHT22;7983;50.744;7.086;2023-02-03T09:16:39;11.90;99.90
15765;DHT22;7983;50.744;7.086;2023-02-03T09:19:10;11.90;99.90
15765;DHT22;7983;50.744;7.086;2023-02-03T09:21:40;11.90;99.90
15765;DHT22;7983;50.744;7.086;2023-02-03T09:24:05;11.90;99.90
15765;DHT22;7983;50.744;7.086;2023-02-03T09:26:34;11.90;99.90
15765;DHT22;7983;50.744;7.086;2023-02-03T09:29:02;11.90;99.90
15765;DHT22;7983;50.744;7.086;2023-02-03T09:31:27;12.00;99.90
15765;DHT22;7983;50.744;7.086;2023-02-03T09:33:55;11.90;99.90
15765;DHT22;7983;50.744;7.086;2023-02-03T09:36:21;11.90;99.90
15765;DHT22;7983;50.744;7.086;2023-02-03T09:38:48;11.90;99.90
15765;DHT22;7983;50.744;7.086;2023-02-03T09:47:28;11.90;99.90
15765;DHT22;7983;50.744;7.086;2023-02-03T09:50:03;11.90;99.90
15765;DHT22;7983;50.744;7.086;2023-02-03T09:52:35;11.90;99.90
15765;DHT22;7983;50.744;7.086;2023-02-03T10:00:26;11.90;99.90
15765;DHT22;7983;50.744;7.086;2023-02-03T10:06:04;11.90;99.90
15765;DHT22;7983;50.744;7.086;2023-02-03T10:14:16;11.90;99.90
15765;DHT22;7983;50.744;7.086;2023-02-03T10:22:12;11.90;99.90
15765;DHT22;7983;50.744;7.086;2023-02-03T10:24:42;12.00;99.90
15765;DHT22;7983;50.744;7.086;2023-02-03T10:27:16;12.00;99.90
15765;DHT22;7983;50.744;7.086;2023-02-03T10:29:42;12.00;99.90
15765;DHT22;7983;50.744;7.086;2023-02-03T10:32:12;12.00;99.90
15765;DHT22;7983;50.744;7.086;2023-02-03T10:34:38;12.00;99.90
15765;DHT22;7983;50.744;7.086;2023-02-03T10:39:53;12.00;99.90
15765;DHT22;7983;50.744;7.086;2023-02-03T10:42:22;12.00;99.90
15765;DHT22;7983;50.744;7.086;2023-02-03T10:47:44;11.90;99.90
15765;DHT22;7983;50.744;7.086;2023-02-03T10:50:18;11.90;99.90
15765;DHT22;7983;50.744;7.086;2023-02-03T10:52:45;11.90;99.90
15765;DHT22;7983;50.744;7.086;2023-02-03T10:57:51;11.90;99.90
15765;DHT22;7983;50.744;7.086;2023-02-03T11:02:56;12.00;99.90
15765;DHT22;7983;50.744;7.086;2023-02-03T11:05:23;12.00;99.90
15765;DHT22;7983;50.744;7.086;2023-02-03T11:07:52;12.10;99.90
15765;DHT22;7983;50.744;7.086;2023-02-03T11:10:34;12.10;99.90
15765;DHT22;7983;50.744;7.086;2023-02-03T11:13:21;12.20;99.90
15765;DHT22;7983;50.744;7.086;2023-02-03T11:15:57;12.20;99.90
15765;DHT22;7983;50.744;7.086;2023-02-03T11:20:59;12.30;99.90
15765;DHT22;7983;50.744;7.086;2023-02-03T11:23:30;12.30;99.90
15765;DHT22;7983;50.744;7.086;2023-02-03T11:25:56;12.30;99.90
15765;DHT22;7983;50.744;7.086;2023-02-03T11:28:24;12.30;99.90
15765;DHT22;7983;50.744;7.086;2023-02-03T11:30:56;12.30;99.90
15765;DHT22;7983;50.744;7.086;2023-02-03T11:33:25;12.30;99.90
15765;DHT22;7983;50.744;7.086;2023-02-03T11:35:57;12.30;99.90
15765;DHT22;7983;50.744;7.086;2023-02-03T11:38:32;12.30;99.90
15765;DHT22;7983;50.744;7.086;2023-02-03T11:41:01;12.30;99.90
15765;DHT22;7983;50.744;7.086;2023-02-03T11:43:28;12.30;99.90
15765;DHT22;7983;50.744;7.086;2023-02-03T11:45:59;12.30;99.90
15765;DHT22;7983;50.744;7.086;2023-02-03T11:48:36;12.30;99.90
15765;DHT22;7983;50.744;7.086;2023-02-03T12:04:47;12.30;99.90
15765;DHT22;7983;50.744;7.086;2023-02-03T12:07:36;12.20;99.90
15765;DHT22;7983;50.744;7.086;2023-02-03T12:10:27;12.20;99.90
15765;DHT22;7983;50.744;7.086;2023-02-03T12:21:42;12.20;99.90
15765;DHT22;7983;50.744;7.086;2023-02-03T12:29:44;12.10;99.90
15765;DHT22;7983;50.744;7.086;2023-02-03T12:32:21;12.10;99.90
15765;DHT22;7983;50.744;7.086;2023-02-03T12:35:00;12.10;99.90
15765;DHT22;7983;50.744;7.086;2023-02-03T12:37:55;12.10;99.90
15765;DHT22;7983;50.744;7.086;2023-02-03T12:43:01;12.10;99.90
15765;DHT22;7983;50.744;7.086;2023-02-03T12:45:31;12.10;99.90
15765;DHT22;7983;50.744;7.086;2023-02-03T12:48:44;12.10;99.90
15765;DHT22;7983;50.744;7.086;2023-02-03T12:50:59;12.10;99.90
15765;DHT22;7983;50.744;7.086;2023-02-03T12:53:32;12.10;99.90
15765;DHT22;7983;50.744;7.086;2023-02-03T12:56:12;12.10;99.90
15765;DHT22;7983;50.744;7.086;2023-02-03T13:06:54;12.10;99.90
15765;DHT22;7983;50.744;7.086;2023-02-03T13:09:59;12.10;99.90
15765;DHT22;7983;50.744;7.086;2023-02-03T13:12:50;12.10;99.90
15765;DHT22;7983;50.744;7.086;2023-02-03T13:15:22;12.10;99.90
15765;DHT22;7983;50.744;7.086;2023-02-03T13:17:52;12.10;99.90
15765;DHT22;7983;50.744;7.086;2023-02-03T13:20:24;12.10;99.90
15765;DHT22;7983;50.744;7.086;2023-02-03T13:22:51;12.10;99.90
15765;DHT22;7983;50.744;7.086;2023-02-03T13:36:23;12.00;99.90
15765;DHT22;7983;50.744;7.086;2023-02-03T13:44:17;12.00;99.90
15765;DHT22;7983;50.744;7.086;2023-02-03T13:46:47;11.90;99.90
15765;DHT22;7983;50.744;7.086;2023-02-03T13:49:33;11.90;99.90
15765;DHT22;7983;50.744;7.086;2023-02-03T13:52:02;11.90;99.90
15765;DHT22;7983;50.744;7.086;2023-02-03T13:54:37;11.90;99.90
15765;DHT22;7983;50.744;7.086;2023-02-03T13:57:15;11.90;99.90
15765;DHT22;7983;50.744;7.086;2023-02-03T13:59:45;11.90;99.90
15765;DHT22;7983;50.744;7.086;2023-02-03T14:02:41;11.90;99.90
15765;DHT22;7983;50.744;7.086;2023-02-03T14:05:37;11.80;99.90
15765;DHT22;7983;50.744;7.086;2023-02-03T14:16:44;11.70;99.90
15765;DHT22;7983;50.744;7.086;2023-02-03T14:22:17;11.60;99.90
15765;DHT22;7983;50.744;7.086;2023-02-03T14:24:45;11.50;99.90
15765;DHT22;7983;50.744;7.086;2023-02-03T14:27:24;11.50;99.90
15765;DHT22;7983;50.744;7.086;2023-02-03T14:30:14;11.40;99.90
15765;DHT22;7983;50.744;7.086;2023-02-03T14:32:48;11.40;99.90
15765;DHT22;7983;50.744;7.086;2023-02-03T14:35:16;11.40;99.90
15765;DHT22;7983;50.744;7.086;2023-02-03T14:37:55;11.30;99.90
15765;DHT22;7983;50.744;7.086;2023-02-03T14:40:31;11.30;99.90
15765;DHT22;7983;50.744;7.086;2023-02-03T14:54:12;11.10;99.90
15765;DHT22;7983;50.744;7.086;2023-02-03T14:59:41;11.10;99.90
15765;DHT22;7983;50.744;7.086;2023-02-03T15:02:09;11.10;99.90
15765;DHT22;7983;50.744;7.086;2023-02-03T15:04:35;11.10;99.90
15765;DHT22;7983;50.744;7.086;2023-02-03T15:07:03;11.10;99.90
15765;DHT22;7983;50.744;7.086;2023-02-03T15:12:24;11.00;99.90
15765;DHT22;7983;50.744;7.086;2023-02-03T15:15:11;11.00;99.90
15765;DHT22;7983;50.744;7.086;2023-02-03T15:17:39;11.00;99.90
15765;DHT22;7983;50.744;7.086;2023-02-03T15:23:15;11.00;99.90
15765;DHT22;7983;50.744;7.086;2023-02-03T15:25:42;11.00;99.90
15765;DHT22;7983;50.744;7.086;2023-02-03T15:28:12;11.00;99.90
15765;DHT22;7983;50.744;7.086;2023-02-03T15:30:44;11.00;99.90
15765;DHT22;7983;50.744;7.086;2023-02-03T15:33:18;11.00;99.90
15765;DHT22;7983;50.744;7.086;2023-02-03T15:35:51;11.10;99.90
15765;DHT22;7983;50.744;7.086;2023-02-03T15:38:28;11.10;99.90
15765;DHT22;7983;50.744;7.086;2023-02-03T15:40:58;11.10;99.90
15765;DHT22;7983;50.744;7.086;2023-02-03T15:43:31;11.10;99.90
15765;DHT22;7983;50.744;7.086;2023-02-03T15:46:06;11.20;99.90
15765;DHT22;7983;50.744;7.086;2023-02-03T15:48:50;11.10;99.90
15765;DHT22;7983;50.744;7.086;2023-02-03T15:56:44;11.30;99.90
15765;DHT22;7983;50.744;7.086;2023-02-03T15:59:22;11.30;99.90
15765;DHT22;7983;50.744;7.086;2023-02-03T16:01:50;11.40;99.90
15765;DHT22;7983;50.744;7.086;2023-02-03T16:04:19;11.40;99.90
15765;DHT22;7983;50.744;7.086;2023-02-03T16:06:47;11.40;99.90
15765;DHT22;7983;50.744;7.086;2023-02-03T16:09:50;11.40;99.90
15765;DHT22;7983;50.744;7.086;2023-02-03T16:12:24;11.50;99.90
15765;DHT22;7983;50.744;7.086;2023-02-03T16:14:55;11.50;99.90
15765;DHT22;7983;50.744;7.086;2023-02-03T16:19:50;11.50;99.90
15765;DHT22;7983;50.744;7.086;2023-02-03T16:22:36;11.50;99.90
15765;DHT22;7983;50.744;7.086;2023-02-03T16:25:23;11.60;99.90
15765;DHT22;7983;50.744;7.086;2023-02-03T16:30:54;11.60;99.90
15765;DHT22;7983;50.744;7.086;2023-02-03T16:33:39;11.60;99.90
15765;DHT22;7983;50.744;7.086;2023-02-03T16:36:22;11.60;99.90
15765;DHT22;7983;50.744;7.086;2023-02-03T16:39:11;11.60;99.90
15765;DHT22;7983;50.744;7.086;2023-02-03T16:41:59;11.60;99.90
15765;DHT22;7983;50.744;7.086;2023-02-03T16:44:46;11.50;99.90
15765;DHT22;7983;50.744;7.086;2023-02-03T16:47:32;11.50;99.90
15765;DHT22;7983;50.744;7.086;2023-02-03T16:50:19;11.50;99.90
15765;DHT22;7983;50.744;7.086;2023-02-03T16:53:11;11.40;99.90
15765;DHT22;7983;50.744;7.086;2023-02-03T16:55:40;11.40;99.90
15765;DHT22;7983;50.744;7.086;2023-02-03T16:58:08;11.30;99.90
15765;DHT22;7983;50.744;7.086;2023-02-03T17:00:41;11.30;99.90
15765;DHT22;7983;50.744;7.086;2023-02-03T17:03:12;11.10;99.90
15765;DHT22;7983;50.744;7.086;2023-02-03T17:05:39;11.10;99.90
15765;DHT22;7983;50.744;7.086;2023-02-03T17:08:06;11.00;99.90
15765;DHT22;7983;50.744;7.086;2023-02-03T17:10:36;11.00;99.90
15765;DHT22;7983;50.744;7.086;2023-02-03T17:13:05;10.90;99.90
15765;DHT22;7983;50.744;7.086;2023-02-03T17:15:33;10.90;99.90
15765;DHT22;7983;50.744;7.086;2023-02-03T17:18:01;10.80;99.90
15765;DHT22;7983;50.744;7.086;2023-02-03T17:20:27;10.80;99.90
15765;DHT22;7983;50.744;7.086;2023-02-03T17:22:53;10.70;99.90
15765;DHT22;7983;50.744;7.086;2023-02-03T17:25:21;10.70;99.90
15765;DHT22;7983;50.744;7.086;2023-02-03T17:27:47;10.70;99.90
15765;DHT22;7983;50.744;7.086;2023-02-03T17:30:13;10.60;99.90
15765;DHT22;7983;50.744;7.086;2023-02-03T17:32:39;10.60;99.90
15765;DHT22;7983;50.744;7.086;2023-02-03T17:35:07;10.50;99.90
15765;DHT22;7983;50.744;7.086;2023-02-03T17:37:33;10.50;99.90
15765;DHT22;7983;50.744;7.086;2023-02-03T17:39:59;10.50;99.90
15765;DHT22;7983;50.744;7.086;2023-02-03T17:42:30;10.50;99.90
15765;DHT22;7983;50.744;7.086;2023-02-03T17:44:55;10.40;99.90
15765;DHT22;7983;50.744;7.086;2023-02-03T17:47:21;10.40;99.90
15765;DHT22;7983;50.744;7.086;2023-02-03T17:49:46;10.40;99.90
15765;DHT22;7983;50.744;7.086;2023-02-03T17:52:13;10.30;99.90
15765;DHT22;7983;50.744;7.086;2023-02-03T17:54:38;10.30;99.90
15765;DHT22;7983;50.744;7.086;2023-02-03T17:57:06;10.30;99.90
15765;DHT22;7983;50.744;7.086;2023-02-03T17:59:32;10.30;99.90
15765;DHT22;7983;50.744;7.086;2023-02-03T18:02:00;10.30;99.90
15765;DHT22;7983;50.744;7.086;2023-02-03T18:04:25;10.30;99.90
15765;DHT22;7983;50.744;7.086;2023-02-03T18:06:51;10.30;99.90
15765;DHT22;7983;50.744;7.086;2023-02-03T18:09:21;10.30;99.90
15765;DHT22;7983;50.744;7.086;2023-02-03T18:11:46;10.40;99.90
15765;DHT22;7983;50.744;7.086;2023-02-03T18:14:13;10.40;99.90
15765;DHT22;7983;50.744;7.086;2023-02-03T18:16:39;10.40;99.90
15765;DHT22;7983;50.744;7.086;2023-02-03T18:19:10;10.40;99.90
15765;DHT22;7983;50.744;7.086;2023-02-03T18:21:41;10.50;99.90
15765;DHT22;7983;50.744;7.086;2023-02-03T18:24:11;10.50;99.90
15765;DHT22;7983;50.744;7.086;2023-02-03T18:26:48;10.50;99.90
15765;DHT22;7983;50.744;7.086;2023-02-03T18:29:17;10.60;99.90
15765;DHT22;7983;50.744;7.086;2023-02-03T18:31:46;10.50;99.90
15765;DHT22;7983;50.744;7.086;2023-02-03T18:34:13;10.50;99.90
15765;DHT22;7983;50.744;7.086;2023-02-03T18:36:42;10.50;99.90
15765;DHT22;7983;50.744;7.086;2023-02-03T18:39:10;10.60;99.90
15765;DHT22;7983;50.744;7.086;2023-02-03T18:41:36;10.60;99.90
15765;DHT22;7983;50.744;7.086;2023-02-03T18:44:03;10.60;99.90
15765;DHT22;7983;50.744;7.086;2023-02-03T18:46:32;10.60;99.90